Active alerts


No alerts


weather webcam more information weather webcam


Thunder radar more information blitzortung!


Rain radar more information rain snow radar


Visit our other weather sites:

Template documentation
and downloads

And another site


Nearby METAR Reports

   
EBBR - Brussels International Airport, Belgium
Distance from station: W 9 mi
Updated: Aug 15 2018 11:50 am
Mostly Cloudy  
Mostly Cloudy  
   Wind: SW 8.1 mph
Wind: SW 8.1 mph
Temperature: 69.8°F
Dew Point: 57.2°F
Humidity: 64%
Barometer: 30.09 inHg
Clouds: Mostly Cloudy
Visibility: More than 6 mi
Cloud details: Few Clouds 2800 ft,
Mostly Cloudy 3600 ft
EBBR 151650Z 23007KT 190V250 9999 FEW028 BKN036 21/14 Q1019 NOSIG
EBBE - Beauvechain (Bevekom), Belgium
Distance from station: SSE 10 mi
Updated: Aug 15 2018 11:55 am
Overcast  
Overcast  
   Wind: SW 8.1 mph
Wind: SW 8.1 mph
Temperature: 69.8°F
Dew Point: 59°F
Humidity: 69%
Barometer: 30.12 inHg
Clouds: Overcast
Visibility: More than 6 mi
Cloud details: Overcast 3400 ft
EBBE 151655Z AUTO 23007KT 9999 OVC034/// 21/15 Q1020 BLU
EBDT - Schaffen, Belgium
Distance from station: ENE 18 mi
Updated: Aug 15 2018 11:55 am
Overcast  
Overcast  
   Wind: SW 4.6 mph
Wind: SW 4.6 mph
Temperature: 69.8°F
Dew Point: 59°F
Humidity: 69%
Barometer: 30.09 inHg
Clouds: Overcast
Visibility: More than 6 mi
Cloud details: Mostly Cloudy 3700 ft,
Overcast 4200 ft
EBDT 151655Z AUTO 23004KT 9999 BKN037/// OVC042/// 21/15 Q1019 BLU
EBAW - Antwerp/Deurne, Belgium
Distance from station: NNW 23 mi
Updated: Aug 15 2018 11:50 am
Mostly Cloudy  
Mostly Cloudy  
   Wind: SW 6.9 mph
Wind: SW 6.9 mph
Temperature: 69.8°F
Dew Point: 57.2°F
Humidity: 64%
Barometer: 30.09 inHg
Clouds: Mostly Cloudy
Visibility: More than 6 mi
Cloud details: Few Clouds 2800 ft,
Mostly Cloudy 3600 ft
EBAW 151650Z 23006KT 200V260 9999 FEW028 BKN036 21/14 Q1019 NOSIG
EBCI - Charleroi/Gosselies, Belgium
Distance from station: SSW 32 mi
Updated: Aug 15 2018 11:50 am
Mostly Cloudy  
Mostly Cloudy  
   Wind: WSW 10.4 mph
Wind: WSW 10.4 mph
Temperature: 68°F
Dew Point: 57.2°F
Humidity: 69%
Barometer: 30.12 inHg
Clouds: Mostly Cloudy
Visibility: More than 6 mi
Cloud details: Few Clouds 2600 ft,
Mostly Cloudy 3300 ft
EBCI 151650Z 25009KT 220V280 9999 FEW026 BKN033 20/14 Q1020 NOSIG
EBLG - Bierset/Liege, Belgium
Distance from station: ESE 38 mi
Updated: Aug 15 2018 11:50 am
Mostly Cloudy  
Mostly Cloudy  
   Wind: West 10.4 mph
Wind: West 10.4 mph
Temperature: 68°F
Dew Point: 59°F
Humidity: 73%
Barometer: 30.12 inHg
Clouds: Mostly Cloudy
Visibility: More than 6 mi
Cloud details: Few Clouds 2500 ft,
Mostly Cloudy 3800 ft
EBLG 151650Z 26009KT 9999 FEW025 BKN038 20/15 Q1020 NOSIG

Script developed by  Saratoga-weather.org Adapted for the template by  Weerstation Leuven

You find our weather info also at:

Weather Underground

Midwestern Weather Network

Citizen Weather Observer Program (CWOP)

HAMweather, WeatherForYou, PWS Weather

Equipment we use:

Weather-station
Davis VP2

Weather-program
Cumulus

Davis VP2

Cumulus